Terminal Aerodrome Forecast
Issued by NWS Pittsburgh, PA

Current Version | Previous Version | Text Only | Print | Product List | Glossary Off
Versions: 1 2 3 4 5 6 7 8 9 10 11 12 13 14 15 16 17 18 19 20 21 22 23 24 25 26 27

000
FTUS41 KPBZ 182100 AAA
TAFPIT
TAF AMD
KPIT 182109Z 1821/1924 26006KT P6SM OVC021
     FM182300 28006KT P6SM OVC015
     FM190300 27008KT 4SM -SN OVC010
     FM191000 29008KT P6SM OVC015=

USA.gov is the U.S. government's official web portal to all federal, state and local government web resources and services.